createdAt,value
2017-10-27T00:00:45.255Z,22.98
2017-10-27T00:01:53.947Z,22.94
2017-10-27T00:03:02.894Z,22.94
2017-10-27T00:04:12.213Z,22.92
2017-10-27T00:05:22.213Z,22.9
2017-10-27T00:06:31.568Z,22.92
2017-10-27T00:07:40.216Z,22.9
2017-10-27T00:08:48.882Z,22.95
2017-10-27T00:09:58.912Z,22.9
2017-10-27T00:11:07.904Z,22.92
2017-10-27T00:12:16.565Z,22.98
2017-10-27T00:13:25.226Z,22.94
2017-10-27T00:14:34.546Z,22.92
2017-10-27T00:15:43.534Z,22.92
2017-10-27T00:16:52.193Z,22.95
2017-10-27T00:18:01.823Z,22.97
2017-10-27T00:19:11.135Z,22.92
2017-10-27T00:20:20.169Z,22.92
2017-10-27T00:21:29.168Z,22.94
2017-10-27T00:22:38.164Z,22.91
2017-10-27T00:23:47.153Z,22.94
2017-10-27T00:24:56.143Z,22.94
2017-10-27T00:26:05.134Z,22.95
2017-10-27T00:27:14.456Z,22.94
2017-10-27T00:28:23.508Z,22.95
2017-10-27T00:29:32.160Z,22.97
2017-10-27T00:30:41.136Z,22.97
2017-10-27T00:31:50.765Z,22.97
2017-10-27T00:32:59.762Z,22.98
2017-10-27T00:34:08.525Z,22.94
2017-10-27T00:35:17.177Z,22.94
2017-10-27T00:36:25.833Z,22.94
2017-10-27T00:37:34.822Z,22.97
2017-10-27T00:38:44.155Z,22.91
2017-10-27T00:39:53.143Z,22.94
2017-10-27T00:41:02.447Z,22.94
2017-10-27T00:42:11.433Z,22.98
2017-10-27T00:43:21.120Z,22.91
2017-10-27T00:44:30.418Z,22.95
2017-10-27T00:45:39.387Z,22.91
2017-10-27T00:46:48.052Z,22.94
2017-10-27T00:47:57.371Z,22.9
2017-10-27T00:49:06.680Z,22.88
2017-10-27T00:50:16.325Z,22.94
2017-10-27T00:51:26.081Z,22.95
2017-10-27T00:52:35.085Z,22.9
2017-10-27T00:53:44.066Z,22.88
2017-10-27T00:54:53.046Z,22.94
2017-10-27T00:56:02.369Z,22.86
2017-10-27T00:57:12.012Z,22.85
2017-10-27T00:58:21.912Z,22.85
2017-10-27T00:59:30.957Z,22.88
2017-10-27T01:00:40.625Z,22.86
2017-10-27T01:01:49.623Z,22.86
2017-10-27T01:02:58.270Z,22.86
2017-10-27T01:04:07.261Z,22.86
2017-10-27T01:05:16.575Z,22.91
2017-10-27T01:06:25.247Z,22.88
2017-10-27T01:07:34.318Z,22.9
2017-10-27T01:08:43.306Z,22.91
2017-10-27T01:09:52.301Z,22.92
2017-10-27T01:11:01.625Z,22.82
2017-10-27T01:12:10.929Z,22.9
2017-10-27T01:13:20.289Z,22.9
2017-10-27T01:14:29.296Z,22.8
2017-10-27T01:15:38.294Z,22.85
2017-10-27T01:16:47.616Z,22.9
2017-10-27T01:17:56.944Z,22.83
2017-10-27T01:19:06.257Z,22.9
2017-10-27T01:20:14.899Z,22.88
2017-10-27T01:21:23.891Z,22.83
2017-10-27T01:22:32.858Z,22.85
2017-10-27T01:23:42.213Z,22.8
2017-10-27T01:24:51.527Z,22.86
2017-10-27T01:26:00.519Z,22.86
2017-10-27T01:27:09.842Z,22.82
2017-10-27T01:28:18.823Z,22.88
2017-10-27T01:29:28.137Z,22.86
2017-10-27T01:30:37.462Z,22.85
2017-10-27T01:31:47.110Z,22.85
2017-10-27T01:32:56.095Z,22.82
2017-10-27T01:34:05.069Z,22.85
2017-10-27T01:35:14.382Z,22.83
2017-10-27T01:36:23.032Z,22.86
2017-10-27T01:37:31.695Z,22.83
2017-10-27T01:38:40.672Z,22.82
2017-10-27T01:39:49.983Z,22.82
2017-10-27T01:40:59.298Z,22.85
2017-10-27T01:42:08.279Z,22.83
2017-10-27T01:43:16.938Z,22.82
2017-10-27T01:44:25.609Z,22.82
2017-10-27T01:45:34.955Z,22.85
2017-10-27T01:46:43.613Z,22.85
2017-10-27T01:47:52.604Z,22.77
2017-10-27T01:49:01.573Z,22.83
2017-10-27T01:50:10.230Z,22.8
2017-10-27T01:51:19.270Z,22.8
2017-10-27T01:52:27.930Z,22.79
2017-10-27T01:53:37.576Z,22.79
2017-10-27T01:54:46.557Z,22.73
2017-10-27T01:55:55.552Z,22.79
2017-10-27T01:57:04.873Z,22.73
2017-10-27T01:58:13.839Z,22.82
2017-10-27T01:59:22.836Z,22.77
2017-10-27T02:00:32.156Z,22.79
2017-10-27T02:01:40.820Z,22.79
2017-10-27T02:02:50.448Z,22.8
2017-10-27T02:03:59.440Z,22.79
2017-10-27T02:05:08.412Z,22.76
2017-10-27T02:06:17.404Z,22.8
2017-10-27T02:07:26.391Z,22.79
2017-10-27T02:08:36.031Z,22.77
2017-10-27T02:09:45.337Z,22.72
2017-10-27T02:10:54.657Z,22.72
2017-10-27T02:12:04.012Z,22.73
2017-10-27T02:13:12.997Z,22.75
2017-10-27T02:14:21.995Z,22.77
2017-10-27T02:15:30.651Z,22.82
2017-10-27T02:16:39.974Z,22.82
2017-10-27T02:17:48.633Z,22.75
2017-10-27T02:18:57.627Z,22.79
2017-10-27T02:20:07.287Z,22.79
2017-10-27T02:21:16.934Z,22.76
2017-10-27T02:22:25.908Z,22.7
2017-10-27T02:23:35.225Z,22.77
2017-10-27T02:24:44.208Z,22.75
2017-10-27T02:25:52.865Z,22.75
2017-10-27T02:27:01.854Z,22.77
2017-10-27T02:28:10.826Z,22.72
2017-10-27T02:29:20.155Z,22.76
2017-10-27T02:30:29.472Z,22.73
2017-10-27T02:31:38.473Z,22.79
2017-10-27T02:32:48.128Z,22.75
2017-10-27T02:33:57.117Z,22.75
2017-10-27T02:35:05.782Z,22.75
2017-10-27T02:36:14.766Z,22.76
2017-10-27T02:37:24.425Z,22.7
2017-10-27T02:38:33.411Z,22.75
2017-10-27T02:39:42.734Z,22.75
2017-10-27T02:40:52.038Z,22.73
2017-10-27T02:42:01.032Z,22.77
2017-10-27T02:43:10.334Z,22.7
2017-10-27T02:44:19.330Z,22.8
2017-10-27T02:45:28.319Z,22.75
2017-10-27T02:46:37.341Z,22.73
2017-10-27T02:47:46.331Z,22.76
2017-10-27T02:48:54.997Z,22.67
2017-10-27T02:50:03.655Z,22.7
2017-10-27T02:51:12.651Z,22.72
2017-10-27T02:52:21.632Z,22.65
2017-10-27T02:53:30.961Z,22.75
2017-10-27T02:54:39.614Z,22.75
2017-10-27T02:55:48.594Z,22.72
2017-10-27T02:56:57.243Z,22.64
2017-10-27T02:58:06.222Z,22.68
2017-10-27T02:59:15.218Z,22.72
2017-10-27T03:00:24.872Z,22.7
2017-10-27T03:01:34.194Z,22.72
2017-10-27T03:02:43.510Z,22.72
2017-10-27T03:03:52.488Z,22.7
2017-10-27T03:05:01.470Z,22.75
2017-10-27T03:06:10.443Z,22.67
2017-10-27T03:07:19.424Z,22.65
2017-10-27T03:08:28.737Z,22.68
2017-10-27T03:09:38.032Z,22.68
2017-10-27T03:10:46.697Z,22.7
2017-10-27T03:11:55.711Z,22.67
2017-10-27T03:13:04.695Z,22.67
2017-10-27T03:14:14.658Z,22.67
2017-10-27T03:15:23.968Z,22.7
2017-10-27T03:16:32.950Z,22.7
2017-10-27T03:17:41.924Z,22.65
2017-10-27T03:18:50.914Z,22.72
2017-10-27T03:19:59.908Z,22.62
2017-10-27T03:21:08.887Z,22.72
2017-10-27T03:22:18.515Z,22.62
2017-10-27T03:23:27.810Z,22.72
2017-10-27T03:24:36.797Z,22.61
2017-10-27T03:25:46.095Z,22.68
2017-10-27T03:26:54.734Z,22.7
2017-10-27T03:28:03.715Z,22.67
2017-10-27T03:29:12.688Z,22.68
2017-10-27T03:30:22.326Z,22.73
2017-10-27T03:31:31.301Z,22.61
2017-10-27T03:32:40.609Z,22.73
2017-10-27T03:33:49.911Z,22.65
2017-10-27T03:34:59.232Z,22.6
2017-10-27T03:36:07.894Z,22.7
2017-10-27T03:37:17.524Z,22.61
2017-10-27T03:38:26.854Z,22.6
2017-10-27T03:39:36.158Z,22.58
2017-10-27T03:40:45.147Z,22.58
2017-10-27T03:41:54.191Z,22.58
2017-10-27T03:43:03.521Z,22.6
2017-10-27T03:44:12.197Z,22.65
2017-10-27T03:45:21.171Z,22.6
2017-10-27T03:46:30.796Z,22.61
2017-10-27T03:47:39.459Z,22.6
2017-10-27T03:48:48.453Z,22.65
2017-10-27T03:49:57.778Z,22.58
2017-10-27T03:51:06.748Z,22.57
2017-10-27T03:52:15.736Z,22.6
2017-10-27T03:53:24.720Z,22.57
2017-10-27T03:54:34.033Z,22.57
2017-10-27T03:55:42.687Z,22.64
2017-10-27T03:56:52.012Z,22.58
2017-10-27T03:58:01.316Z,22.6
2017-10-27T03:59:10.379Z,22.62
2017-10-27T04:00:19.355Z,22.68
2017-10-27T04:01:28.017Z,22.6
2017-10-27T04:02:37.535Z,22.58
2017-10-27T04:03:46.858Z,22.58
2017-10-27T04:04:56.186Z,22.58
2017-10-27T04:06:05.493Z,22.58
2017-10-27T04:07:14.206Z,22.58
2017-10-27T04:08:23.853Z,22.57
2017-10-27T04:09:32.856Z,22.61
2017-10-27T04:10:41.844Z,22.67
2017-10-27T04:11:50.510Z,22.65
2017-10-27T04:12:59.813Z,22.55
2017-10-27T04:14:08.800Z,22.57
2017-10-27T04:15:17.800Z,22.67
2017-10-27T04:16:27.453Z,22.61
2017-10-27T04:17:37.455Z,22.58
2017-10-27T04:18:46.131Z,22.6
2017-10-27T04:19:55.112Z,22.68
2017-10-27T04:21:04.424Z,22.61
2017-10-27T04:22:13.097Z,22.64
2017-10-27T04:23:21.746Z,22.68
2017-10-27T04:24:30.754Z,22.6
2017-10-27T04:25:39.407Z,22.64
2017-10-27T04:26:48.377Z,22.58
2017-10-27T04:27:57.048Z,22.58
2017-10-27T04:29:06.042Z,22.61
2017-10-27T04:30:15.108Z,22.58
2017-10-27T04:31:23.778Z,22.6
2017-10-27T04:32:33.088Z,22.52
2017-10-27T04:33:41.736Z,22.57
2017-10-27T04:34:51.042Z,22.58
2017-10-27T04:36:00.067Z,22.54
2017-10-27T04:37:09.056Z,22.6
2017-10-27T04:38:18.363Z,22.67
2017-10-27T04:39:27.036Z,22.65
2017-10-27T04:40:35.700Z,22.58
2017-10-27T04:41:44.352Z,22.58
2017-10-27T04:42:53.025Z,22.67
2017-10-27T04:44:02.006Z,22.65
2017-10-27T04:45:11.318Z,22.67
2017-10-27T04:46:20.298Z,22.65
2017-10-27T04:47:28.952Z,22.62
2017-10-27T04:48:37.927Z,22.54
2017-10-27T04:49:46.917Z,22.57
2017-10-27T04:50:56.226Z,22.62
2017-10-27T04:52:04.895Z,22.64
2017-10-27T04:53:14.524Z,22.65
2017-10-27T04:54:23.833Z,22.62
2017-10-27T04:55:33.152Z,22.52
2017-10-27T04:56:42.128Z,22.62
2017-10-27T04:57:50.777Z,22.58
2017-10-27T04:58:59.754Z,22.65
2017-10-27T05:00:09.400Z,22.67
2017-10-27T05:01:18.363Z,22.57
2017-10-27T05:02:27.339Z,22.58
2017-10-27T05:03:36.307Z,22.65
2017-10-27T05:04:45.280Z,22.6
2017-10-27T05:05:55.248Z,22.73
2017-10-27T05:07:04.245Z,22.57
2017-10-27T05:08:13.218Z,22.58
2017-10-27T05:09:22.522Z,22.61
2017-10-27T05:10:31.500Z,22.6
2017-10-27T05:11:40.505Z,22.6
2017-10-27T05:12:49.140Z,22.61
2017-10-27T05:13:58.123Z,22.61
2017-10-27T05:15:07.101Z,22.61
2017-10-27T05:16:16.427Z,22.58
2017-10-27T05:17:25.063Z,22.61
2017-10-27T05:18:34.038Z,22.58
2017-10-27T05:19:43.011Z,22.58
2017-10-27T05:20:52.327Z,22.57
2017-10-27T05:22:01.641Z,22.68
2017-10-27T05:23:10.635Z,22.73
2017-10-27T05:24:19.610Z,22.68
2017-10-27T05:25:28.917Z,22.72
2017-10-27T05:26:37.566Z,22.72
2017-10-27T05:27:46.228Z,22.73
2017-10-27T05:28:55.203Z,22.8
2017-10-27T05:30:04.603Z,22.7
2017-10-27T05:31:13.618Z,22.82
2017-10-27T05:32:22.918Z,22.77
2017-10-27T05:33:32.224Z,22.86
2017-10-27T05:34:41.224Z,22.82
2017-10-27T05:35:50.537Z,22.85
2017-10-27T05:36:59.867Z,22.83
2017-10-27T05:38:08.877Z,22.86
2017-10-27T05:39:18.175Z,22.88
2017-10-27T05:40:27.487Z,22.97
2017-10-27T05:41:36.797Z,22.95
2017-10-27T05:42:45.843Z,22.92
2017-10-27T05:43:54.489Z,22.92
2017-10-27T05:45:03.525Z,23.01
2017-10-27T05:46:12.180Z,22.94
2017-10-27T05:47:21.175Z,23.05
2017-10-27T05:48:30.471Z,23.05
2017-10-27T05:49:39.440Z,23
2017-10-27T05:50:48.737Z,22.97
2017-10-27T05:51:58.081Z,22.88
2017-10-27T05:53:07.070Z,22.97
2017-10-27T05:54:16.384Z,22.91
2017-10-27T05:55:25.056Z,22.94
2017-10-27T05:56:34.062Z,22.91
2017-10-27T05:57:43.436Z,22.91
2017-10-27T05:58:52.089Z,22.97
2017-10-27T06:00:00.751Z,22.95
2017-10-27T06:01:09.726Z,22.95
2017-10-27T06:02:18.391Z,22.98
2017-10-27T06:03:27.701Z,22.92
2017-10-27T06:04:36.676Z,22.97
2017-10-27T06:05:45.991Z,22.92
2017-10-27T06:06:54.640Z,22.88
2017-10-27T06:08:03.651Z,22.86
2017-10-27T06:09:12.622Z,22.9
2017-10-27T06:10:21.594Z,22.86
2017-10-27T06:11:31.300Z,22.9
2017-10-27T06:12:40.610Z,22.86
2017-10-27T06:13:49.258Z,22.85
2017-10-27T06:14:58.583Z,22.91
2017-10-27T06:16:07.882Z,22.88
2017-10-27T06:17:17.176Z,22.86
2017-10-27T06:18:25.819Z,22.86
2017-10-27T06:19:34.471Z,22.85
2017-10-27T06:20:43.778Z,22.85
2017-10-27T06:21:53.114Z,22.9
2017-10-27T06:23:02.411Z,22.88
2017-10-27T06:24:11.724Z,22.94
2017-10-27T06:25:21.052Z,22.9
2017-10-27T06:26:30.019Z,22.95
2017-10-27T06:27:39.350Z,22.92
2017-10-27T06:28:48.656Z,22.91
2017-10-27T06:29:58.288Z,22.95
2017-10-27T06:31:07.285Z,22.9
2017-10-27T06:32:15.961Z,22.9
2017-10-27T06:33:24.949Z,22.83
2017-10-27T06:34:33.967Z,22.9
2017-10-27T06:35:42.955Z,22.88
2017-10-27T06:36:51.622Z,22.88
2017-10-27T06:38:00.972Z,22.85
2017-10-27T06:39:09.637Z,22.83
2017-10-27T06:40:18.978Z,22.88
2017-10-27T06:41:28.300Z,22.85
2017-10-27T06:42:37.289Z,22.85
2017-10-27T06:43:46.637Z,22.82
2017-10-27T06:44:55.649Z,22.83
2017-10-27T06:46:04.315Z,22.86
2017-10-27T06:47:13.660Z,22.82
2017-10-27T06:48:23.025Z,22.8
2017-10-27T06:49:32.338Z,22.82
2017-10-27T06:50:41.984Z,22.8
2017-10-27T06:51:50.643Z,22.85
2017-10-27T06:52:59.980Z,22.83
2017-10-27T06:54:08.649Z,22.82
2017-10-27T06:55:17.962Z,22.82
2017-10-27T06:56:27.031Z,22.8
2017-10-27T06:57:35.690Z,22.83
2017-10-27T06:58:44.358Z,22.83
2017-10-27T06:59:53.361Z,22.85
2017-10-27T07:01:03.340Z,22.75
2017-10-27T07:02:12.675Z,22.85
2017-10-27T07:03:21.669Z,22.8
2017-10-27T07:04:30.684Z,22.79
2017-10-27T07:05:39.705Z,22.82
2017-10-27T07:06:48.405Z,22.82
2017-10-27T07:07:57.142Z,22.82
2017-10-27T07:09:06.489Z,22.83
2017-10-27T07:10:15.473Z,22.77
2017-10-27T07:11:24.457Z,22.85
2017-10-27T07:12:33.522Z,22.79
2017-10-27T07:13:42.178Z,22.86
2017-10-27T07:14:51.175Z,22.85
2017-10-27T07:16:00.171Z,22.83
2017-10-27T07:17:09.494Z,22.82
2017-10-27T07:18:18.161Z,22.77
2017-10-27T07:19:26.833Z,22.8
2017-10-27T07:20:35.896Z,22.8
2017-10-27T07:21:45.226Z,22.83
2017-10-27T07:22:54.532Z,22.88
2017-10-27T07:24:03.912Z,22.76
2017-10-27T07:25:12.899Z,22.85
2017-10-27T07:26:21.890Z,22.8
2017-10-27T07:27:31.194Z,22.8
2017-10-27T07:28:41.156Z,22.8
2017-10-27T07:29:50.823Z,22.82
2017-10-27T07:31:00.175Z,22.83
2017-10-27T07:32:09.274Z,22.77
2017-10-27T07:33:18.336Z,22.83
2017-10-27T07:34:27.030Z,22.85
2017-10-27T07:35:36.044Z,22.83
2017-10-27T07:36:45.454Z,22.79
2017-10-27T07:37:54.360Z,22.8
2017-10-27T07:39:03.859Z,22.83
2017-10-27T07:40:13.714Z,22.83
2017-10-27T07:41:23.507Z,22.82
2017-10-27T07:42:32.509Z,22.85
2017-10-27T07:43:41.565Z,22.82
2017-10-27T07:44:50.557Z,22.85
2017-10-27T07:45:59.907Z,22.8
2017-10-27T07:47:08.922Z,22.8
2017-10-27T07:48:17.601Z,22.9
2017-10-27T07:49:26.959Z,22.8
2017-10-27T07:50:35.640Z,22.83
2017-10-27T07:51:45.373Z,22.9
2017-10-27T07:52:55.052Z,22.9
2017-10-27T07:54:04.090Z,22.92
2017-10-27T07:55:12.755Z,22.92
2017-10-27T07:56:22.743Z,22.85
2017-10-27T07:57:31.855Z,22.9
2017-10-27T07:58:40.552Z,22.83
2017-10-27T07:59:49.543Z,22.88
2017-10-27T08:00:58.576Z,22.88
2017-10-27T08:02:08.276Z,22.88
2017-10-27T08:03:18.379Z,22.94
2017-10-27T08:04:27.782Z,22.92
2017-10-27T08:05:37.206Z,22.91
2017-10-27T08:06:45.872Z,22.97
2017-10-27T08:07:55.289Z,22.91
2017-10-27T08:09:04.039Z,22.97
2017-10-27T08:10:13.307Z,22.86
2017-10-27T08:11:23.136Z,22.98
2017-10-27T08:12:32.922Z,22.88
2017-10-27T08:13:43.242Z,22.91
2017-10-27T08:14:52.881Z,22.9
2017-10-27T08:16:02.231Z,22.9
2017-10-27T08:17:11.567Z,22.95
2017-10-27T08:18:21.578Z,22.97
2017-10-27T08:19:30.581Z,22.97
2017-10-27T08:20:39.286Z,22.9
2017-10-27T08:21:49.016Z,22.95
2017-10-27T08:22:58.012Z,22.97
2017-10-27T08:24:07.339Z,22.92
2017-10-27T08:25:16.424Z,22.92
2017-10-27T08:26:25.445Z,22.92
2017-10-27T08:27:34.477Z,22.91
2017-10-27T08:28:43.826Z,22.94
2017-10-27T08:29:52.823Z,22.94
2017-10-27T08:31:01.855Z,22.97
2017-10-27T08:32:11.202Z,22.9
2017-10-27T08:33:19.938Z,22.9
2017-10-27T08:34:29.283Z,22.92
2017-10-27T08:35:38.608Z,22.91
2017-10-27T08:36:47.678Z,22.91
2017-10-27T08:37:56.748Z,22.97
2017-10-27T08:39:06.113Z,22.94
2017-10-27T08:40:15.128Z,23
2017-10-27T08:41:24.147Z,22.95
2017-10-27T08:42:32.817Z,22.92
2017-10-27T08:43:42.131Z,22.97
2017-10-27T08:44:51.479Z,22.95
2017-10-27T08:46:00.803Z,23.02
2017-10-27T08:47:09.471Z,23.02
2017-10-27T08:48:18.479Z,22.97
2017-10-27T08:49:27.485Z,23.07
2017-10-27T08:50:36.645Z,23.01
2017-10-27T08:51:45.761Z,23.05
2017-10-27T08:52:54.800Z,23.04
2017-10-27T08:54:03.834Z,23.07
2017-10-27T08:55:13.517Z,23.01
2017-10-27T08:56:22.538Z,23.05
2017-10-27T08:57:31.557Z,23.09
2017-10-27T08:58:40.251Z,23.01
2017-10-27T08:59:49.243Z,23.05
2017-10-27T09:00:58.608Z,23.1
2017-10-27T09:02:07.957Z,23.02
2017-10-27T09:03:16.955Z,23.04
2017-10-27T09:04:25.968Z,23.05
2017-10-27T09:05:34.672Z,23.07
2017-10-27T09:06:43.349Z,23.09
2017-10-27T09:07:52.384Z,23.05
2017-10-27T09:09:01.351Z,23.13
2017-10-27T09:10:10.355Z,23.09
2017-10-27T09:11:19.340Z,23.09
2017-10-27T09:12:28.318Z,23.1
2017-10-27T09:13:36.976Z,23.09
2017-10-27T09:14:46.973Z,23.05
2017-10-27T09:15:55.961Z,23.07
2017-10-27T09:17:05.280Z,23.05
2017-10-27T09:18:13.947Z,23.07
2017-10-27T09:19:23.335Z,23.09
2017-10-27T09:20:32.763Z,23.04
2017-10-27T09:21:42.110Z,23.09
2017-10-27T09:22:51.123Z,23.07
2017-10-27T09:24:00.449Z,23.09
2017-10-27T09:25:09.142Z,23.12
2017-10-27T09:26:18.138Z,23.04
2017-10-27T09:27:27.482Z,23.09
2017-10-27T09:28:36.473Z,23.12
2017-10-27T09:29:45.806Z,23.17
2017-10-27T09:30:54.486Z,23.15
2017-10-27T09:32:03.812Z,23.16
2017-10-27T09:33:13.159Z,23.17
2017-10-27T09:34:21.921Z,23.2
2017-10-27T09:35:30.981Z,23.12
2017-10-27T09:36:39.983Z,23.17
2017-10-27T09:37:49.334Z,23.16
2017-10-27T09:38:58.371Z,23.15
2017-10-27T09:40:07.647Z,23.2
2017-10-27T09:41:17.451Z,23.13
2017-10-27T09:42:26.367Z,23.17
2017-10-27T09:43:35.702Z,23.16
2017-10-27T09:44:44.373Z,23.19
2017-10-27T09:45:53.692Z,23.2
2017-10-27T09:47:02.717Z,23.19
2017-10-27T09:48:12.051Z,23.16
2017-10-27T09:49:21.741Z,23.16
2017-10-27T09:50:31.072Z,23.19
2017-10-27T09:51:40.395Z,23.17
2017-10-27T09:52:49.411Z,23.19
2017-10-27T09:53:58.751Z,23.17
2017-10-27T09:55:08.106Z,23.07
2017-10-27T09:56:17.470Z,23.17
2017-10-27T09:57:26.479Z,23.09
2017-10-27T09:58:35.816Z,23.17
2017-10-27T09:59:45.508Z,23.13
2017-10-27T10:00:54.484Z,23.04
2017-10-27T10:02:03.784Z,23.16
2017-10-27T10:03:13.096Z,23.16
2017-10-27T10:04:22.583Z,23.13
2017-10-27T10:05:31.597Z,23.07
2017-10-27T10:06:40.696Z,23.17
2017-10-27T10:07:50.038Z,23.15
2017-10-27T10:08:59.016Z,23.15
2017-10-27T10:10:08.018Z,23.13
2017-10-27T10:11:17.001Z,23.1
2017-10-27T10:12:26.345Z,23.13
2017-10-27T10:13:35.326Z,23.17
2017-10-27T10:14:44.978Z,23.2
2017-10-27T10:15:54.016Z,23.15
2017-10-27T10:17:02.999Z,23.23
2017-10-27T10:18:12.313Z,23.2
2017-10-27T10:19:21.331Z,23.15
2017-10-27T10:20:30.037Z,23.19
2017-10-27T10:21:39.371Z,23.2
2017-10-27T10:22:48.081Z,23.13
2017-10-27T10:23:56.772Z,23.17
2017-10-27T10:25:05.445Z,23.28
2017-10-27T10:26:14.120Z,23.12
2017-10-27T10:27:23.464Z,23.2
2017-10-27T10:28:32.464Z,23.17
2017-10-27T10:29:41.450Z,23.16
2017-10-27T10:30:50.451Z,23.15
2017-10-27T10:31:59.434Z,23.09
2017-10-27T10:33:08.773Z,23.13
2017-10-27T10:34:17.443Z,23.09
2017-10-27T10:35:26.494Z,23.07
2017-10-27T10:36:35.168Z,23.05
2017-10-27T10:37:43.837Z,23.16
2017-10-27T10:38:53.524Z,23.12
2017-10-27T10:40:02.516Z,23.1
2017-10-27T10:41:11.181Z,23.13
2017-10-27T10:42:20.873Z,23.15
2017-10-27T10:43:29.881Z,23.07
2017-10-27T10:44:38.890Z,23.12
2017-10-27T10:45:48.553Z,23.16
2017-10-27T10:46:58.234Z,23.15
2017-10-27T10:48:07.239Z,23.07
2017-10-27T10:49:16.256Z,23.16
2017-10-27T10:50:25.591Z,23.17
2017-10-27T10:51:34.910Z,23.15
2017-10-27T10:52:44.256Z,23.19
2017-10-27T10:53:53.274Z,23.2
2017-10-27T10:55:02.326Z,23.19
2017-10-27T10:56:11.346Z,23.19
2017-10-27T10:57:20.356Z,23.22
2017-10-27T10:58:29.372Z,23.19
2017-10-27T10:59:38.759Z,23.15
2017-10-27T11:00:48.412Z,23.15
2017-10-27T11:01:57.762Z,23.16
2017-10-27T11:03:06.431Z,23.17
2017-10-27T11:04:15.435Z,23.15
2017-10-27T11:05:24.130Z,23.15
2017-10-27T11:06:33.140Z,23.13
2017-10-27T11:07:42.799Z,23.15
2017-10-27T11:08:51.484Z,23.16
2017-10-27T11:10:00.184Z,23.28
2017-10-27T11:11:09.521Z,23.25
2017-10-27T11:12:18.212Z,23.19
2017-10-27T11:13:26.868Z,23.25
2017-10-27T11:14:36.226Z,23.2
2017-10-27T11:15:45.904Z,23.13
2017-10-27T11:16:54.924Z,23.15
2017-10-27T11:18:04.924Z,23.13
2017-10-27T11:19:14.049Z,23.19
2017-10-27T11:20:23.381Z,23.16
2017-10-27T11:21:32.136Z,23.16
2017-10-27T11:22:41.595Z,23.04
2017-10-27T11:23:51.096Z,23.1
2017-10-27T11:25:00.790Z,23.04
2017-10-27T11:26:09.494Z,23.05
2017-10-27T11:27:18.566Z,23.05
2017-10-27T11:28:27.624Z,23.01
2017-10-27T11:29:37.522Z,23.09
2017-10-27T11:30:46.868Z,23.1
2017-10-27T11:31:56.233Z,23.1
2017-10-27T11:33:05.572Z,23.13
2017-10-27T11:34:14.605Z,23.09
2017-10-27T11:35:24.593Z,23.16
2017-10-27T11:36:33.935Z,23.15
2017-10-27T11:37:42.646Z,23.12
2017-10-27T11:38:51.641Z,23.2
2017-10-27T11:40:00.314Z,23.15
2017-10-27T11:41:09.651Z,23.16
2017-10-27T11:42:18.997Z,23.15
2017-10-27T11:43:28.000Z,23.15
2017-10-27T11:44:37.321Z,23.09
2017-10-27T11:45:46.320Z,23.19
2017-10-27T11:46:55.308Z,23.15
2017-10-27T11:48:03.989Z,23.19
2017-10-27T11:49:13.397Z,23.17
2017-10-27T11:50:22.102Z,23.19
2017-10-27T11:51:31.455Z,23.19
2017-10-27T11:52:40.784Z,23.17
2017-10-27T11:53:49.801Z,23.12
2017-10-27T11:54:58.826Z,23.17
2017-10-27T11:56:07.534Z,23.16
2017-10-27T11:57:16.524Z,23.13
2017-10-27T11:58:26.211Z,23.17
2017-10-27T11:59:35.536Z,23.09
2017-10-27T12:00:44.880Z,23.17
2017-10-27T12:01:54.230Z,23.12
2017-10-27T12:03:03.199Z,23.07
2017-10-27T12:04:12.199Z,23.13
2017-10-27T12:05:21.222Z,23.12
2017-10-27T12:06:30.256Z,23.02
2017-10-27T12:07:38.972Z,23.01
2017-10-27T12:08:47.979Z,23.05
2017-10-27T12:09:57.098Z,23.05
2017-10-27T12:11:06.784Z,23.07
2017-10-27T12:12:15.799Z,23.05
2017-10-27T12:13:25.342Z,23.01
2017-10-27T12:14:34.349Z,23.07
2017-10-27T12:15:43.716Z,23.05
2017-10-27T12:16:53.057Z,23.05
2017-10-27T12:18:02.044Z,23.02
2017-10-27T12:19:11.041Z,23.01
2017-10-27T12:20:20.031Z,23.07
2017-10-27T12:21:29.697Z,23.05
2017-10-27T12:22:39.058Z,23
2017-10-27T12:23:48.716Z,23.01
2017-10-27T12:24:57.385Z,23.09
2017-10-27T12:26:06.729Z,23.04
2017-10-27T12:27:16.403Z,23.01
2017-10-27T12:28:26.065Z,23.02
2017-10-27T12:29:35.091Z,23.02
2017-10-27T12:30:44.085Z,23.07
2017-10-27T12:31:53.374Z,23.04
2017-10-27T12:33:03.048Z,23.05
2017-10-27T12:34:13.101Z,23.02
2017-10-27T12:35:22.622Z,23.05
2017-10-27T12:36:32.234Z,23.05
2017-10-27T12:37:42.279Z,23.04
2017-10-27T12:38:52.309Z,22.97
2017-10-27T12:40:01.588Z,23.02
2017-10-27T12:41:11.471Z,23.04
2017-10-27T12:42:21.888Z,23.05
2017-10-27T12:43:31.981Z,23
2017-10-27T12:44:41.041Z,23.05
2017-10-27T12:45:50.060Z,23.09
2017-10-27T12:46:58.846Z,23.07
2017-10-27T12:48:08.179Z,23.05
2017-10-27T12:49:18.153Z,23.09
2017-10-27T12:50:27.363Z,23.05
2017-10-27T12:51:37.504Z,23.04
2017-10-27T12:52:47.885Z,23.04
2017-10-27T12:53:57.308Z,23.05
2017-10-27T12:55:06.582Z,23.04
2017-10-27T12:56:15.742Z,23.05
2017-10-27T12:57:25.004Z,23.05
2017-10-27T12:58:34.374Z,23.09
2017-10-27T12:59:43.563Z,23.01
2017-10-27T13:00:52.706Z,23.05
2017-10-27T13:02:02.167Z,23.05
2017-10-27T13:03:12.224Z,23.05
2017-10-27T13:04:22.309Z,23.02
2017-10-27T13:05:31.938Z,23.05
2017-10-27T13:06:41.398Z,23.02
2017-10-27T13:07:50.460Z,23.05
2017-10-27T13:09:00.558Z,22.94
2017-10-27T13:10:09.962Z,22.97
2017-10-27T13:11:19.050Z,22.95
2017-10-27T13:12:28.743Z,22.97
2017-10-27T13:13:37.738Z,22.86
2017-10-27T13:14:47.888Z,22.98
2017-10-27T13:15:56.825Z,22.92
2017-10-27T13:17:06.827Z,23.02
2017-10-27T13:18:16.350Z,23.02
2017-10-27T13:19:25.610Z,22.94
2017-10-27T13:20:34.785Z,23
2017-10-27T13:21:43.450Z,23.01
2017-10-27T13:22:52.502Z,23
2017-10-27T13:24:01.402Z,23
2017-10-27T13:25:10.964Z,23.01
2017-10-27T13:26:20.470Z,23.04
2017-10-27T13:27:30.848Z,22.97
2017-10-27T13:28:40.375Z,22.95
2017-10-27T13:29:49.616Z,22.95
2017-10-27T13:30:59.516Z,22.92
2017-10-27T13:32:08.577Z,22.91
2017-10-27T13:33:17.339Z,22.97
2017-10-27T13:34:26.879Z,22.91
2017-10-27T13:35:35.738Z,22.94
2017-10-27T13:36:44.619Z,22.92
2017-10-27T13:37:54.270Z,22.94
2017-10-27T13:39:03.333Z,22.97
2017-10-27T13:40:12.633Z,22.88
2017-10-27T13:41:22.239Z,22.91
2017-10-27T13:42:31.542Z,22.94
2017-10-27T13:43:41.085Z,22.95
2017-10-27T13:44:51.378Z,22.92
2017-10-27T13:46:00.382Z,22.88
2017-10-27T13:47:09.889Z,22.95
2017-10-27T13:48:20.379Z,22.97
2017-10-27T13:49:29.566Z,22.92
2017-10-27T13:50:38.961Z,22.95
2017-10-27T13:51:48.290Z,22.88
2017-10-27T13:52:57.055Z,22.95
2017-10-27T13:54:06.433Z,22.88
2017-10-27T13:55:15.460Z,22.9
2017-10-27T13:56:25.272Z,22.94
2017-10-27T13:57:34.360Z,22.91
2017-10-27T13:58:43.370Z,22.86
2017-10-27T13:59:53.672Z,22.92
2017-10-27T14:01:03.286Z,22.92
2017-10-27T14:02:12.144Z,22.85
2017-10-27T14:03:21.636Z,22.85
2017-10-27T14:04:31.559Z,22.83
2017-10-27T14:05:41.420Z,22.92
2017-10-27T14:06:50.187Z,22.85
2017-10-27T14:07:59.520Z,22.91
2017-10-27T14:09:09.252Z,22.9
2017-10-27T14:10:18.635Z,22.86
2017-10-27T14:11:27.319Z,22.91
2017-10-27T14:12:36.727Z,22.88
2017-10-27T14:13:45.827Z,22.9
2017-10-27T14:14:55.268Z,22.94
2017-10-27T14:16:04.622Z,22.9
2017-10-27T14:17:14.502Z,22.91
2017-10-27T14:18:23.897Z,22.86
2017-10-27T14:19:33.679Z,22.92
2017-10-27T14:20:43.883Z,22.91
2017-10-27T14:21:53.418Z,22.94
2017-10-27T14:23:02.262Z,22.9
2017-10-27T14:24:11.648Z,22.95
2017-10-27T14:25:20.707Z,22.86
2017-10-27T14:26:30.407Z,22.9
2017-10-27T14:27:39.793Z,22.95
2017-10-27T14:28:48.822Z,22.95
2017-10-27T14:29:57.901Z,22.95
2017-10-27T14:31:06.616Z,22.88
2017-10-27T14:32:15.798Z,22.94
2017-10-27T14:33:24.511Z,22.92
2017-10-27T14:34:33.598Z,22.95
2017-10-27T14:35:42.324Z,22.9
2017-10-27T14:36:51.357Z,22.94
2017-10-27T14:38:00.090Z,22.95
2017-10-27T14:39:09.750Z,22.91
2017-10-27T14:40:19.066Z,22.88
2017-10-27T14:41:28.079Z,22.94
2017-10-27T14:42:37.181Z,22.91
2017-10-27T14:43:46.177Z,22.91
2017-10-27T14:44:55.212Z,22.97
2017-10-27T14:46:04.520Z,22.94
2017-10-27T14:47:14.205Z,22.92
2017-10-27T14:48:23.864Z,22.94
2017-10-27T14:49:33.252Z,22.91
2017-10-27T14:50:42.288Z,22.88
2017-10-27T14:52:23.706Z,22.92
2017-10-27T14:53:33.011Z,22.95
2017-10-27T14:54:41.999Z,22.91
2017-10-27T14:55:50.689Z,22.9